createdAt,value
2023-05-05T00:00:36.358Z,50.804253
2023-05-05T00:01:36.356Z,50.804302
2023-05-05T00:02:36.658Z,50.804256
2023-05-05T00:03:36.449Z,50.804230
2023-05-05T00:04:36.351Z,50.804268
2023-05-05T00:05:36.320Z,50.804249
2023-05-05T00:06:36.327Z,50.804279
2023-05-05T00:07:36.307Z,50.804306
2023-05-05T00:08:36.354Z,50.804306
2023-05-05T00:09:36.309Z,50.804325
2023-05-05T00:10:36.294Z,50.804379
2023-05-05T00:11:36.281Z,50.804470
2023-05-05T00:12:36.294Z,50.804359
2023-05-05T00:13:36.324Z,50.804272
2023-05-05T00:14:36.290Z,50.804264
2023-05-05T00:15:36.243Z,50.804394
2023-05-05T00:16:36.299Z,50.804356
2023-05-05T00:17:36.281Z,50.804371
2023-05-05T00:18:36.215Z,50.804340
2023-05-05T00:19:36.206Z,50.804298
2023-05-05T00:20:36.268Z,50.804283
2023-05-05T00:21:36.210Z,50.804325
2023-05-05T00:22:36.237Z,50.804386
2023-05-05T00:23:36.261Z,50.804394
2023-05-05T00:24:36.190Z,50.804359
2023-05-05T00:25:36.224Z,50.804371
2023-05-05T00:26:36.233Z,50.804214
2023-05-05T00:27:37.008Z,50.804230
2023-05-05T00:28:36.175Z,50.804291
2023-05-05T00:29:36.200Z,50.804295
2023-05-05T00:30:36.148Z,50.804276
2023-05-05T00:31:36.178Z,50.804268
2023-05-05T00:32:36.217Z,50.804264
2023-05-05T00:33:36.127Z,50.804279
2023-05-05T00:34:36.117Z,50.804306
2023-05-05T00:35:36.124Z,50.804306
2023-05-05T00:36:36.114Z,50.804283
2023-05-05T00:37:36.110Z,50.804394
2023-05-05T00:38:36.144Z,50.804333
2023-05-05T00:39:36.112Z,50.804272
2023-05-05T00:40:36.069Z,50.804230
2023-05-05T00:41:36.082Z,50.804146
2023-05-05T00:42:36.095Z,50.804115
2023-05-05T00:43:36.093Z,50.804337
2023-05-05T00:44:36.298Z,50.804367
2023-05-05T00:45:36.040Z,50.804344
2023-05-05T00:46:36.190Z,50.804352
2023-05-05T00:47:36.050Z,50.804310
2023-05-05T00:48:36.091Z,50.804291
2023-05-05T00:49:36.057Z,50.804295
2023-05-05T00:50:36.049Z,50.804317
2023-05-05T00:51:36.017Z,50.804317
2023-05-05T00:52:36.006Z,50.804306
2023-05-05T00:53:36.006Z,50.804302
2023-05-05T00:54:36.006Z,50.804287
2023-05-05T00:55:35.982Z,50.804367
2023-05-05T00:56:36.456Z,50.804333
2023-05-05T00:57:35.970Z,50.804264
2023-05-05T00:58:35.976Z,50.804306
2023-05-05T00:59:35.960Z,50.804325
2023-05-05T01:00:35.939Z,50.804337
2023-05-05T01:01:35.978Z,50.804382
2023-05-05T01:02:36.030Z,50.804363
2023-05-05T01:03:36.035Z,50.804329
2023-05-05T01:04:35.940Z,50.804298
2023-05-05T01:05:35.902Z,50.804413
2023-05-05T01:06:35.940Z,50.804359
2023-05-05T01:07:35.927Z,50.804363
2023-05-05T01:08:35.970Z,50.804348
2023-05-05T01:09:35.906Z,50.804295
2023-05-05T01:10:36.020Z,50.804279
2023-05-05T01:11:35.871Z,50.804310
2023-05-05T01:12:35.868Z,50.804287
2023-05-05T01:13:35.850Z,50.804310
2023-05-05T01:14:35.903Z,50.804306
2023-05-05T01:15:35.830Z,50.804352
2023-05-05T01:16:35.918Z,50.804291
2023-05-05T01:17:35.836Z,50.804314
2023-05-05T01:18:35.828Z,50.804306
2023-05-05T01:19:35.822Z,50.804314
2023-05-05T01:20:36.019Z,50.804306
2023-05-05T01:21:35.789Z,50.804295
2023-05-05T01:22:35.777Z,50.804306
2023-05-05T01:23:35.770Z,50.804310
2023-05-05T01:24:35.763Z,50.804337
2023-05-05T01:25:35.768Z,50.804279
2023-05-05T01:26:35.825Z,50.804340
2023-05-05T01:27:35.768Z,50.804329
2023-05-05T01:28:35.738Z,50.804363
2023-05-05T01:29:35.728Z,50.804352
2023-05-05T01:30:35.727Z,50.804375
2023-05-05T01:31:35.781Z,50.804363
2023-05-05T01:32:35.802Z,50.804386
2023-05-05T01:33:35.756Z,50.804359
2023-05-05T01:34:35.724Z,50.804352
2023-05-05T01:35:35.683Z,50.804363
2023-05-05T01:36:35.679Z,50.804321
2023-05-05T01:37:35.687Z,50.804436
2023-05-05T01:38:35.718Z,50.804413
2023-05-05T01:39:35.675Z,50.804333
2023-05-05T01:40:35.714Z,50.804344
2023-05-05T01:41:35.626Z,50.804325
2023-05-05T01:42:35.661Z,50.804317
2023-05-05T01:43:35.613Z,50.804337
2023-05-05T01:44:35.710Z,50.804321
2023-05-05T01:45:35.661Z,50.804306
2023-05-05T01:46:35.615Z,50.804333
2023-05-05T01:47:35.638Z,50.804329
2023-05-05T01:48:35.607Z,50.804337
2023-05-05T01:49:35.589Z,50.804348
2023-05-05T01:50:35.663Z,50.804306
2023-05-05T01:51:35.566Z,50.804371
2023-05-05T01:52:35.566Z,50.804363
2023-05-05T01:53:35.570Z,50.804382
2023-05-05T01:54:35.587Z,50.804386
2023-05-05T01:55:35.540Z,50.804428
2023-05-05T01:56:35.590Z,50.804398
2023-05-05T01:57:35.524Z,50.804386
2023-05-05T01:58:35.580Z,50.804375
2023-05-05T01:59:35.615Z,50.804459
2023-05-05T02:00:35.708Z,50.804482
2023-05-05T02:01:35.547Z,50.804482
2023-05-05T02:02:36.123Z,50.804367
2023-05-05T02:03:35.713Z,50.804436
2023-05-05T02:04:35.641Z,50.804443
2023-05-05T02:05:35.491Z,50.804390
2023-05-05T02:06:35.517Z,50.804348
2023-05-05T02:07:35.564Z,50.804306
2023-05-05T02:08:35.725Z,50.804344
2023-05-05T02:09:35.464Z,50.804367
2023-05-05T02:10:35.480Z,50.804310
2023-05-05T02:11:35.509Z,50.804298
2023-05-05T02:12:35.675Z,50.804359
2023-05-05T02:13:35.578Z,50.804401
2023-05-05T02:14:35.651Z,50.804344
2023-05-05T02:15:35.652Z,50.804371
2023-05-05T02:16:35.611Z,50.804386
2023-05-05T02:17:35.558Z,50.804443
2023-05-05T02:18:35.527Z,50.804447
2023-05-05T02:19:35.611Z,50.804420
2023-05-05T02:20:35.812Z,50.804394
2023-05-05T02:21:35.584Z,50.804375
2023-05-05T02:22:35.396Z,50.804424
2023-05-05T02:23:35.573Z,50.804489
2023-05-05T02:24:35.605Z,50.804455
2023-05-05T02:25:35.327Z,50.804394
2023-05-05T02:26:35.360Z,50.804325
2023-05-05T02:27:35.310Z,50.804367
2023-05-05T02:28:35.315Z,50.804405
2023-05-05T02:29:35.346Z,50.804420
2023-05-05T02:30:35.271Z,50.804371
2023-05-05T02:31:35.321Z,50.804398
2023-05-05T02:32:35.379Z,50.804367
2023-05-05T02:33:35.262Z,50.804379
2023-05-05T02:34:35.271Z,50.804405
2023-05-05T02:35:35.246Z,50.804382
2023-05-05T02:36:35.240Z,50.804420
2023-05-05T02:37:35.250Z,50.804459
2023-05-05T02:38:35.270Z,50.804432
2023-05-05T02:39:35.224Z,50.804348
2023-05-05T02:40:35.249Z,50.804317
2023-05-05T02:41:35.217Z,50.804298
2023-05-05T02:42:35.192Z,50.804352
2023-05-05T02:43:35.208Z,50.804359
2023-05-05T02:44:35.231Z,50.804321
2023-05-05T02:45:35.189Z,50.804394
2023-05-05T02:46:35.211Z,50.804424
2023-05-05T02:47:35.242Z,50.804333
2023-05-05T02:48:35.165Z,50.804314
2023-05-05T02:49:35.162Z,50.804474
2023-05-05T02:50:35.205Z,50.804485
2023-05-05T02:51:35.122Z,50.804359
2023-05-05T02:52:35.119Z,50.804329
2023-05-05T02:53:35.110Z,50.804405
2023-05-05T02:54:35.121Z,50.804401
2023-05-05T02:55:35.100Z,50.804428
2023-05-05T02:56:35.154Z,50.804394
2023-05-05T02:57:35.088Z,50.804428
2023-05-05T02:58:35.069Z,50.804390
2023-05-05T02:59:35.076Z,50.804356
2023-05-05T03:00:35.069Z,50.804306
2023-05-05T03:01:35.118Z,50.804337
2023-05-05T03:02:35.214Z,50.804363
2023-05-05T03:03:35.137Z,50.804356
2023-05-05T03:04:35.028Z,50.804260
2023-05-05T03:05:35.047Z,50.804344
2023-05-05T03:06:35.034Z,50.804302
2023-05-05T03:07:35.018Z,50.804310
2023-05-05T03:08:35.461Z,50.804283
2023-05-05T03:09:35.032Z,50.804287
2023-05-05T03:10:35.003Z,50.804283
2023-05-05T03:11:35.021Z,50.804279
2023-05-05T03:12:35.028Z,50.804234
2023-05-05T03:13:34.967Z,50.804310
2023-05-05T03:14:35.021Z,50.804348
2023-05-05T03:15:34.981Z,50.804417
2023-05-05T03:16:35.015Z,50.804401
2023-05-05T03:17:35.028Z,50.804325
2023-05-05T03:18:34.947Z,50.804329
2023-05-05T03:19:34.946Z,50.804344
2023-05-05T03:20:34.965Z,50.804325
2023-05-05T03:21:34.908Z,50.804325
2023-05-05T03:22:34.906Z,50.804321
2023-05-05T03:23:34.902Z,50.804352
2023-05-05T03:24:35.355Z,50.804340
2023-05-05T03:25:34.880Z,50.804298
2023-05-05T03:26:34.929Z,50.804264
2023-05-05T03:27:34.898Z,50.804314
2023-05-05T03:28:34.897Z,50.804314
2023-05-05T03:29:34.834Z,50.804325
2023-05-05T03:30:34.855Z,50.804317
2023-05-05T03:31:34.898Z,50.804352
2023-05-05T03:32:34.938Z,50.804367
2023-05-05T03:33:34.834Z,50.804367
2023-05-05T03:34:34.858Z,50.804386
2023-05-05T03:35:34.806Z,50.804359
2023-05-05T03:36:34.798Z,50.804363
2023-05-05T03:37:34.798Z,50.804348
2023-05-05T03:38:34.865Z,50.804352
2023-05-05T03:39:34.779Z,50.804382
2023-05-05T03:40:43.547Z,50.804375
2023-05-05T03:41:35.758Z,50.804348
2023-05-05T03:42:34.756Z,50.804356
2023-05-05T03:43:34.770Z,50.804352
2023-05-05T03:44:34.796Z,50.804340
2023-05-05T03:45:34.760Z,50.804348
2023-05-05T03:46:34.741Z,50.804382
2023-05-05T03:47:34.785Z,50.804363
2023-05-05T03:48:34.729Z,50.804352
2023-05-05T03:49:34.728Z,50.804333
2023-05-05T03:50:34.849Z,50.804348
2023-05-05T03:51:34.685Z,50.804310
2023-05-05T03:52:34.707Z,50.804329
2023-05-05T03:53:34.699Z,50.804337
2023-05-05T03:54:34.654Z,50.804367
2023-05-05T03:55:34.660Z,50.804371
2023-05-05T03:56:34.702Z,50.804394
2023-05-05T03:57:34.659Z,50.804367
2023-05-05T03:58:34.666Z,50.804359
2023-05-05T03:59:34.666Z,50.804363
2023-05-05T04:00:34.619Z,50.804379
2023-05-05T04:01:34.620Z,50.804356
2023-05-05T04:02:34.734Z,50.804340
2023-05-05T04:03:34.644Z,50.804363
2023-05-05T04:04:34.712Z,50.804367
2023-05-05T04:05:34.610Z,50.804333
2023-05-05T04:06:34.630Z,50.804295
2023-05-05T04:07:34.594Z,50.804321
2023-05-05T04:08:34.627Z,50.804298
2023-05-05T04:09:34.557Z,50.804317
2023-05-05T04:10:34.570Z,50.804314
2023-05-05T04:11:34.553Z,50.804287
2023-05-05T04:12:34.585Z,50.804314
2023-05-05T04:13:34.530Z,50.804325
2023-05-05T04:14:34.752Z,50.804272
2023-05-05T04:15:34.505Z,50.804333
2023-05-05T04:16:34.531Z,50.804295
2023-05-05T04:17:34.562Z,50.804276
2023-05-05T04:18:34.519Z,50.804287
2023-05-05T04:19:34.499Z,50.804302
2023-05-05T04:20:34.531Z,50.804298
2023-05-05T04:21:34.507Z,50.804268
2023-05-05T04:22:34.465Z,50.804321
2023-05-05T04:23:34.468Z,50.804310
2023-05-05T04:24:34.479Z,50.804295
2023-05-05T04:25:34.456Z,50.804287
2023-05-05T04:26:34.567Z,50.804287
2023-05-05T04:27:34.456Z,50.804291
2023-05-05T04:28:34.470Z,50.804432
2023-05-05T04:29:34.422Z,50.804298
2023-05-05T04:30:34.404Z,50.804317
2023-05-05T04:31:34.447Z,50.804249
2023-05-05T04:32:34.480Z,50.804253
2023-05-05T04:33:34.417Z,50.804268
2023-05-05T04:34:34.390Z,50.804295
2023-05-05T04:35:34.384Z,50.804298
2023-05-05T04:36:34.350Z,50.804272
2023-05-05T04:37:34.346Z,50.804279
2023-05-05T04:38:34.460Z,50.804329
2023-05-05T04:39:34.347Z,50.804256
2023-05-05T04:40:34.338Z,50.804295
2023-05-05T04:41:34.320Z,50.804310
2023-05-05T04:42:34.338Z,50.804314
2023-05-05T04:43:34.342Z,50.804283
2023-05-05T04:44:34.349Z,50.804344
2023-05-05T04:45:34.336Z,50.804371
2023-05-05T04:46:34.289Z,50.804356
2023-05-05T04:47:34.302Z,50.804295
2023-05-05T04:48:34.390Z,50.804314
2023-05-05T04:49:34.286Z,50.804333
2023-05-05T04:50:34.296Z,50.804424
2023-05-05T04:51:34.254Z,50.804375
2023-05-05T04:52:34.278Z,50.804356
2023-05-05T04:53:34.245Z,50.804344
2023-05-05T04:54:34.241Z,50.804310
2023-05-05T04:55:34.233Z,50.804302
2023-05-05T04:56:34.273Z,50.804314
2023-05-05T04:57:34.209Z,50.804317
2023-05-05T04:58:34.221Z,50.804398
2023-05-05T04:59:34.199Z,50.804317
2023-05-05T05:00:34.218Z,50.804321
2023-05-05T05:01:35.241Z,50.804245
2023-05-05T05:02:34.294Z,50.804367
2023-05-05T05:03:34.216Z,50.804291
2023-05-05T05:04:34.192Z,50.804302
2023-05-05T05:05:34.162Z,50.804340
2023-05-05T05:06:34.158Z,50.804325
2023-05-05T05:07:34.149Z,50.804329
2023-05-05T05:08:34.179Z,50.804283
2023-05-05T05:09:34.134Z,50.804283
2023-05-05T05:10:34.150Z,50.804295
2023-05-05T05:11:34.192Z,50.804291
2023-05-05T05:12:34.128Z,50.804371
2023-05-05T05:13:34.128Z,50.804310
2023-05-05T05:14:34.122Z,50.804325
2023-05-05T05:15:34.086Z,50.804291
2023-05-05T05:16:34.098Z,50.804268
2023-05-05T05:17:34.074Z,50.804249
2023-05-05T05:18:34.075Z,50.804306
2023-05-05T05:19:34.091Z,50.804321
2023-05-05T05:20:34.403Z,50.804245
2023-05-05T05:21:34.051Z,50.804359
2023-05-05T05:22:34.026Z,50.804314
2023-05-05T05:23:34.022Z,50.804367
2023-05-05T05:24:34.031Z,50.804333
2023-05-05T05:25:34.041Z,50.804295
2023-05-05T05:26:34.058Z,50.804264
2023-05-05T05:27:33.995Z,50.804321
2023-05-05T05:28:33.996Z,50.804302
2023-05-05T05:29:33.987Z,50.804325
2023-05-05T05:30:34.002Z,50.804379
2023-05-05T05:31:33.967Z,50.804401
2023-05-05T05:32:34.034Z,50.804352
2023-05-05T05:33:33.992Z,50.804367
2023-05-05T05:34:33.956Z,50.804420
2023-05-05T05:35:33.945Z,50.804367
2023-05-05T05:36:33.938Z,50.804337
2023-05-05T05:37:33.919Z,50.804321
2023-05-05T05:38:33.936Z,50.804291
2023-05-05T05:39:33.923Z,50.804291
2023-05-05T05:40:33.918Z,50.804302
2023-05-05T05:41:33.916Z,50.804295
2023-05-05T05:42:33.892Z,50.804302
2023-05-05T05:43:33.896Z,50.804302
2023-05-05T05:44:33.909Z,50.804295
2023-05-05T05:45:33.868Z,50.804298
2023-05-05T05:46:33.964Z,50.804310
2023-05-05T05:47:33.912Z,50.804245
2023-05-05T05:48:33.854Z,50.804272
2023-05-05T05:49:33.872Z,50.804344
2023-05-05T05:50:33.868Z,50.804344
2023-05-05T05:51:33.824Z,50.804390
2023-05-05T05:52:33.817Z,50.804455
2023-05-05T05:53:33.828Z,50.804375
2023-05-05T05:54:33.814Z,50.804367
2023-05-05T05:55:33.795Z,50.804394
2023-05-05T05:56:33.829Z,50.804340
2023-05-05T05:57:33.793Z,50.804409
2023-05-05T05:58:33.787Z,50.804424
2023-05-05T05:59:33.763Z,50.804424
2023-05-05T06:00:33.747Z,50.804413
2023-05-05T06:01:33.764Z,50.804417
2023-05-05T06:02:33.883Z,50.804443
2023-05-05T06:03:33.852Z,50.804352
2023-05-05T06:04:33.774Z,50.804489
2023-05-05T06:05:33.721Z,50.804443
2023-05-05T06:06:33.743Z,50.804436
2023-05-05T06:07:33.738Z,50.804455
2023-05-05T06:08:33.763Z,50.804440
2023-05-05T06:09:33.724Z,50.804420
2023-05-05T06:10:34.012Z,50.804409
2023-05-05T06:11:33.716Z,50.804340
2023-05-05T06:12:33.670Z,50.804379
2023-05-05T06:13:33.652Z,50.804302
2023-05-05T06:14:33.751Z,50.804344
2023-05-05T06:15:33.669Z,50.804329
2023-05-05T06:16:33.698Z,50.804325
2023-05-05T06:17:33.681Z,50.804424
2023-05-05T06:18:33.620Z,50.804375
2023-05-05T06:19:33.654Z,50.804375
2023-05-05T06:20:33.691Z,50.804363
2023-05-05T06:21:33.608Z,50.804329
2023-05-05T06:22:33.597Z,50.804367
2023-05-05T06:23:33.608Z,50.804493
2023-05-05T06:24:33.584Z,50.804390
2023-05-05T06:25:33.602Z,50.804413
2023-05-05T06:26:33.633Z,50.804352
2023-05-05T06:27:33.571Z,50.804340
2023-05-05T06:28:33.568Z,50.804329
2023-05-05T06:29:33.571Z,50.804348
2023-05-05T06:30:33.582Z,50.804310
2023-05-05T06:31:33.578Z,50.804302
2023-05-05T06:32:33.605Z,50.804306
2023-05-05T06:33:33.515Z,50.804317
2023-05-05T06:34:33.495Z,50.804325
2023-05-05T06:35:33.520Z,50.804302
2023-05-05T06:36:33.524Z,50.804287
2023-05-05T06:37:33.516Z,50.804264
2023-05-05T06:38:33.529Z,50.804253
2023-05-05T06:39:33.462Z,50.804283
2023-05-05T06:40:33.462Z,50.804287
2023-05-05T06:41:33.454Z,50.804279
2023-05-05T06:42:33.486Z,50.804249
2023-05-05T06:43:33.442Z,50.804317
2023-05-05T06:44:33.484Z,50.804306
2023-05-05T06:45:33.436Z,50.804329
2023-05-05T06:46:33.501Z,50.804310
2023-05-05T06:47:33.746Z,50.804348
2023-05-05T06:48:33.450Z,50.804302
2023-05-05T06:49:33.392Z,50.804268
2023-05-05T06:50:33.468Z,50.804306
2023-05-05T06:51:33.438Z,50.804279
2023-05-05T06:52:33.463Z,50.804298
2023-05-05T06:53:33.463Z,50.804214
2023-05-05T06:54:33.435Z,50.804279
2023-05-05T06:55:33.433Z,50.804310
2023-05-05T06:56:33.459Z,50.804245
2023-05-05T06:57:33.426Z,50.804310
2023-05-05T06:58:33.403Z,50.804295
2023-05-05T06:59:33.403Z,50.804325
2023-05-05T07:00:33.362Z,50.804359
2023-05-05T07:01:33.331Z,50.804306
2023-05-05T07:02:33.372Z,50.804321
2023-05-05T07:03:33.399Z,50.804329
2023-05-05T07:04:33.300Z,50.804298
2023-05-05T07:05:33.286Z,50.804317
2023-05-05T07:06:33.278Z,50.804302
2023-05-05T07:07:33.275Z,50.804272
2023-05-05T07:08:33.319Z,50.804279
2023-05-05T07:09:33.272Z,50.804298
2023-05-05T07:10:33.283Z,50.804253
2023-05-05T07:11:33.275Z,50.804394
2023-05-05T07:12:33.304Z,50.804375
2023-05-05T07:13:33.217Z,50.804325
2023-05-05T07:14:33.253Z,50.804356
2023-05-05T07:15:33.210Z,50.804306
2023-05-05T07:16:33.266Z,50.804272
2023-05-05T07:17:33.204Z,50.804260
2023-05-05T07:18:33.212Z,50.804302
2023-05-05T07:19:33.611Z,50.804306
2023-05-05T07:20:33.222Z,50.804298
2023-05-05T07:21:33.185Z,50.804329
2023-05-05T07:22:33.172Z,50.804390
2023-05-05T07:23:33.170Z,50.804352
2023-05-05T07:24:33.159Z,50.804302
2023-05-05T07:25:33.135Z,50.804321
2023-05-05T07:26:33.648Z,50.804298
2023-05-05T07:27:33.135Z,50.804329
2023-05-05T07:28:33.153Z,50.804340
2023-05-05T07:29:33.121Z,50.804333
2023-05-05T07:30:33.105Z,50.804333
2023-05-05T07:31:33.149Z,50.804321
2023-05-05T07:32:33.142Z,50.804306
2023-05-05T07:33:33.083Z,50.804302
2023-05-05T07:34:33.112Z,50.804325
2023-05-05T07:35:33.129Z,50.804325
2023-05-05T07:36:33.090Z,50.804337
2023-05-05T07:37:33.047Z,50.804329
2023-05-05T07:38:33.090Z,50.804340
2023-05-05T07:39:33.046Z,50.804344
2023-05-05T07:40:33.013Z,50.804329
2023-05-05T07:41:33.030Z,50.804348
2023-05-05T07:42:33.023Z,50.804382
2023-05-05T07:43:33.038Z,50.804352
2023-05-05T07:44:33.072Z,50.804352
2023-05-05T07:45:33.041Z,50.804321
2023-05-05T07:46:33.042Z,50.804317
2023-05-05T07:47:33.036Z,50.804325
2023-05-05T07:48:32.997Z,50.804314
2023-05-05T07:49:32.966Z,50.804321
2023-05-05T07:50:33.021Z,50.804321
2023-05-05T07:51:34.488Z,50.804337
2023-05-05T07:52:45.054Z,50.804314
2023-05-05T07:53:33.952Z,50.804314
2023-05-05T07:54:32.927Z,50.804298
2023-05-05T07:55:32.926Z,50.804317
2023-05-05T07:56:32.958Z,50.804333
2023-05-05T07:57:32.942Z,50.804329
2023-05-05T07:58:32.907Z,50.804314
2023-05-05T07:59:32.889Z,50.804302
2023-05-05T08:00:32.882Z,50.804310
2023-05-05T08:01:32.904Z,50.804306
2023-05-05T08:02:33.001Z,50.804317
2023-05-05T08:03:33.148Z,50.804314
2023-05-05T08:04:32.888Z,50.804321
2023-05-05T08:05:32.854Z,50.804314
2023-05-05T08:06:32.855Z,50.804333
2023-05-05T08:07:32.890Z,50.804329
2023-05-05T08:08:32.897Z,50.804314
2023-05-05T08:09:32.826Z,50.804352
2023-05-05T08:10:32.806Z,50.804367
2023-05-05T08:11:32.807Z,50.804337
2023-05-05T08:12:32.805Z,50.804359
2023-05-05T08:13:32.793Z,50.804337
2023-05-05T08:14:32.824Z,50.804356
2023-05-05T08:15:32.768Z,50.804306
2023-05-05T08:16:32.860Z,50.804352
2023-05-05T08:17:32.789Z,50.804363
2023-05-05T08:18:32.746Z,50.804394
2023-05-05T08:19:32.754Z,50.804363
2023-05-05T08:20:32.791Z,50.804340
2023-05-05T08:21:32.733Z,50.804352
2023-05-05T08:22:32.739Z,50.804352
2023-05-05T08:23:32.832Z,50.804337
2023-05-05T08:24:32.792Z,50.804363
2023-05-05T08:25:32.729Z,50.804363
2023-05-05T08:26:32.739Z,50.804295
2023-05-05T08:27:32.688Z,50.804317
2023-05-05T08:28:32.684Z,50.804321
2023-05-05T08:29:32.672Z,50.804340
2023-05-05T08:30:32.670Z,50.804279
2023-05-05T08:31:32.699Z,50.804298
2023-05-05T08:32:33.079Z,50.804314
2023-05-05T08:33:32.676Z,50.804409
2023-05-05T08:34:32.636Z,50.804356
2023-05-05T08:35:32.671Z,50.804348
2023-05-05T08:36:32.626Z,50.804359
2023-05-05T08:37:32.616Z,50.804371
2023-05-05T08:38:32.655Z,50.804348
2023-05-05T08:39:32.747Z,50.804424
2023-05-05T08:40:32.587Z,50.804440
2023-05-05T08:41:32.592Z,50.804386
2023-05-05T08:42:37.003Z,50.804214
2023-05-05T08:43:33.617Z,50.804348
2023-05-05T08:44:32.560Z,50.804375
2023-05-05T08:45:32.555Z,50.804375
2023-05-05T08:46:32.551Z,50.804321
2023-05-05T08:47:32.555Z,50.804340
2023-05-05T08:48:32.563Z,50.804420
2023-05-05T08:49:32.562Z,50.804478
2023-05-05T08:50:32.549Z,50.804394
2023-05-05T08:51:32.516Z,50.804401
2023-05-05T08:52:32.622Z,50.804398
2023-05-05T08:53:32.505Z,50.804386
2023-05-05T08:54:32.497Z,50.804367
2023-05-05T08:55:32.752Z,50.804356
2023-05-05T08:56:32.467Z,50.804333
2023-05-05T08:57:32.475Z,50.804470
2023-05-05T08:58:32.491Z,50.804375
2023-05-05T08:59:32.443Z,50.804352
2023-05-05T09:00:32.448Z,50.804379
2023-05-05T09:01:32.658Z,50.804367
2023-05-05T09:02:32.546Z,50.804367
2023-05-05T09:03:32.487Z,50.804329
2023-05-05T09:04:32.451Z,50.804394
2023-05-05T09:05:32.411Z,50.804413
2023-05-05T09:06:32.415Z,50.804363
2023-05-05T09:07:32.456Z,50.804352
2023-05-05T09:08:32.412Z,50.804256
2023-05-05T09:09:32.435Z,50.804314
2023-05-05T09:10:32.378Z,50.804344
2023-05-05T09:11:32.517Z,50.804298
2023-05-05T09:12:32.409Z,50.804260
2023-05-05T09:13:32.419Z,50.804340
2023-05-05T09:14:32.336Z,50.804337
2023-05-05T09:15:32.343Z,50.804321
2023-05-05T09:16:32.366Z,50.804428
2023-05-05T09:17:32.388Z,50.804405
2023-05-05T09:18:32.309Z,50.804371
2023-05-05T09:19:32.366Z,50.804325
2023-05-05T09:20:32.317Z,50.804394
2023-05-05T09:21:32.368Z,50.804478
2023-05-05T09:22:32.285Z,50.804394
2023-05-05T09:23:32.301Z,50.804249
2023-05-05T09:24:32.288Z,50.804409
2023-05-05T09:25:32.438Z,50.804420
2023-05-05T09:26:32.257Z,50.804363
2023-05-05T09:27:32.245Z,50.804348
2023-05-05T09:28:32.258Z,50.804440
2023-05-05T09:29:32.244Z,50.804405
2023-05-05T09:30:32.241Z,50.804291
2023-05-05T09:31:32.299Z,50.804344
2023-05-05T09:32:32.208Z,50.804367
2023-05-05T09:33:32.223Z,50.804375
2023-05-05T09:34:32.218Z,50.804394
2023-05-05T09:35:32.289Z,50.804398
2023-05-05T09:36:32.188Z,50.804390
2023-05-05T09:37:32.426Z,50.804283
2023-05-05T09:38:32.167Z,50.804394
2023-05-05T09:39:32.185Z,50.804344
2023-05-05T09:40:32.153Z,50.804382
2023-05-05T09:41:32.188Z,50.804356
2023-05-05T09:42:32.167Z,50.804306
2023-05-05T09:43:32.195Z,50.804310
2023-05-05T09:44:32.123Z,50.804340
2023-05-05T09:45:32.128Z,50.804325
2023-05-05T09:46:32.189Z,50.804356
2023-05-05T09:47:32.923Z,50.804348
2023-05-05T09:48:32.274Z,50.804317
2023-05-05T09:49:32.157Z,50.804298
2023-05-05T09:50:32.144Z,50.804352
2023-05-05T09:51:32.074Z,50.804310
2023-05-05T09:52:32.146Z,50.804356
2023-05-05T09:53:32.059Z,50.804359
2023-05-05T09:54:32.058Z,50.804317
2023-05-05T09:55:32.177Z,50.804344
2023-05-05T09:56:32.105Z,50.804325
2023-05-05T09:57:32.100Z,50.804337
2023-05-05T09:58:32.100Z,50.804352
2023-05-05T09:59:32.107Z,50.804337
2023-05-05T10:00:32.047Z,50.804344
2023-05-05T10:01:32.139Z,50.804306
2023-05-05T10:02:32.060Z,50.804314
2023-05-05T10:03:32.040Z,50.804321
2023-05-05T10:04:32.027Z,50.804310
2023-05-05T10:05:32.088Z,50.804302
2023-05-05T10:06:32.081Z,50.804306
2023-05-05T10:07:32.062Z,50.804302
2023-05-05T10:08:31.987Z,50.804283
2023-05-05T10:09:32.061Z,50.804329
2023-05-05T10:10:31.988Z,50.804329
2023-05-05T10:11:31.996Z,50.804302
2023-05-05T10:12:31.965Z,50.804264
2023-05-05T10:13:31.989Z,50.804337
2023-05-05T10:14:31.943Z,50.804298
2023-05-05T10:15:32.020Z,50.804272
2023-05-05T10:16:31.929Z,50.804283
2023-05-05T10:17:32.021Z,50.804337
2023-05-05T10:18:32.001Z,50.804314
2023-05-05T10:19:31.962Z,50.804302
2023-05-05T10:20:31.950Z,50.804302
2023-05-05T10:21:31.922Z,50.804329
2023-05-05T10:22:31.927Z,50.804302
2023-05-05T10:23:31.883Z,50.804283
2023-05-05T10:24:31.871Z,50.804340
2023-05-05T10:25:31.942Z,50.804344
2023-05-05T10:26:31.822Z,50.804333
2023-05-05T10:27:31.822Z,50.804340
2023-05-05T10:28:31.825Z,50.804295
2023-05-05T10:29:31.808Z,50.804314
2023-05-05T10:30:31.825Z,50.804306
2023-05-05T10:31:31.963Z,50.804306
2023-05-05T10:32:51.113Z,50.804276
2023-05-05T10:33:32.901Z,50.804260
2023-05-05T10:34:31.806Z,50.804245
2023-05-05T10:35:31.788Z,50.804276
2023-05-05T10:36:31.913Z,50.804272
2023-05-05T10:37:31.827Z,50.804317
2023-05-05T10:38:31.801Z,50.804302
2023-05-05T10:39:31.753Z,50.804321
2023-05-05T10:40:31.758Z,50.804310
2023-05-05T10:41:31.765Z,50.804314
2023-05-05T10:42:31.748Z,50.804302
2023-05-05T10:43:32.225Z,50.804295
2023-05-05T10:44:31.709Z,50.804317
2023-05-05T10:45:31.793Z,50.804298
2023-05-05T10:46:31.748Z,50.804302
2023-05-05T10:47:31.770Z,50.804298
2023-05-05T10:48:31.700Z,50.804279
2023-05-05T10:49:31.727Z,50.804298
2023-05-05T10:50:31.689Z,50.804279
2023-05-05T10:51:40.321Z,50.804298
2023-05-05T10:52:32.651Z,50.804367
2023-05-05T10:53:31.670Z,50.804386
2023-05-05T10:54:31.651Z,50.804348
2023-05-05T10:55:31.678Z,50.804359
2023-05-05T10:56:31.688Z,50.804314
2023-05-05T10:57:31.682Z,50.804260
2023-05-05T10:58:31.676Z,50.804260
2023-05-05T10:59:31.669Z,50.804272
2023-05-05T11:00:31.679Z,50.804295
2023-05-05T11:01:31.660Z,50.804314
2023-05-05T11:02:32.297Z,50.804325
2023-05-05T11:03:31.716Z,50.804329
2023-05-05T11:04:31.609Z,50.804310
2023-05-05T11:05:31.564Z,50.804325
2023-05-05T11:06:31.610Z,50.804337
2023-05-05T11:07:31.610Z,50.804302
2023-05-05T11:08:31.566Z,50.804279
2023-05-05T11:09:31.549Z,50.804302
2023-05-05T11:10:31.528Z,50.804302
2023-05-05T11:11:31.520Z,50.804283
2023-05-05T11:12:31.630Z,50.804283
2023-05-05T11:13:31.531Z,50.804298
2023-05-05T11:14:31.578Z,50.804279
2023-05-05T11:15:31.688Z,50.804268
2023-05-05T11:16:31.558Z,50.804283
2023-05-05T11:17:31.557Z,50.804310
2023-05-05T11:18:31.489Z,50.804291
2023-05-05T11:19:31.607Z,50.804306
2023-05-05T11:20:31.500Z,50.804298
2023-05-05T11:21:31.552Z,50.804276
2023-05-05T11:22:31.427Z,50.804287
2023-05-05T11:23:31.473Z,50.804241
2023-05-05T11:24:31.494Z,50.804302